AAL4720 KORD-KIAH
Flight info
| Callsign | AAL4720 |
|---|---|
| Flight time | 2h 12m |
| Altitude | 38000 |
| Route | BACEN BLOKR BEKKI FAM J137 LIT EDWAH Q33 SWEUP DOOBI3 |
| Aircraft | A319/M-SDE3FGHIRWY/LB1 |
Departure
| Time | 2026-05-05 18:18 |
|---|---|
| Airport | Chicago O'Hare International Airport (KORD) |
Arrival
| Time | 2026-05-05 20:30 |
|---|---|
| Airport | George Bush Intercontinental Airport (KIAH) |
| Time | Latitude | Longitude | Altitude | Speed | Heading |
|---|---|---|---|---|---|
| 2026-05-05 17:43 | 41.97650 | -87.89727 | 669 ft | 0 kts | 7° |
| 2026-05-05 18:03 | 41.97649 | -87.89727 | 669 ft | 1 kts | 7° |
| 2026-05-05 18:03 | 41.97626 | -87.89734 | 668 ft | 4 kts | 31° |
| 2026-05-05 18:04 | 41.97609 | -87.89758 | 668 ft | 4 kts | 75° |
| 2026-05-05 18:04 | 41.97609 | -87.89793 | 665 ft | 4 kts | 106° |
| 2026-05-05 18:04 | 41.97611 | -87.89802 | 665 ft | 0 kts | 109° |
| 2026-05-05 18:08 | 41.97610 | -87.89801 | 665 ft | 1 kts | 109° |
| 2026-05-05 18:08 | 41.97605 | -87.89779 | 665 ft | 4 kts | 109° |
| 2026-05-05 18:08 | 41.97593 | -87.89733 | 668 ft | 6 kts | 109° |
| 2026-05-05 18:09 | 41.97576 | -87.89669 | 669 ft | 8 kts | 109° |
| 2026-05-05 18:09 | 41.97555 | -87.89589 | 668 ft | 10 kts | 109° |
| 2026-05-05 18:09 | 41.97512 | -87.89541 | 669 ft | 9 kts | 167° |
| 2026-05-05 18:09 | 41.97444 | -87.89526 | 669 ft | 11 kts | 180° |
| 2026-05-05 18:10 | 41.97369 | -87.89561 | 667 ft | 12 kts | 213° |
| 2026-05-05 18:10 | 41.97288 | -87.89601 | 669 ft | 14 kts | 157° |
| 2026-05-05 18:10 | 41.97205 | -87.89514 | 669 ft | 16 kts | 126° |
| 2026-05-05 18:10 | 41.97194 | -87.89363 | 669 ft | 17 kts | 89° |
| 2026-05-05 18:11 | 41.97195 | -87.89201 | 669 ft | 18 kts | 90° |
| 2026-05-05 18:11 | 41.97195 | -87.89025 | 669 ft | 19 kts | 90° |
| 2026-05-05 18:11 | 41.97196 | -87.88840 | 669 ft | 20 kts | 90° |
| 2026-05-05 18:11 | 41.97196 | -87.88646 | 669 ft | 21 kts | 90° |
| 2026-05-05 18:12 | 41.97195 | -87.88466 | 669 ft | 16 kts | 90° |
| 2026-05-05 18:12 | 41.97194 | -87.88339 | 669 ft | 11 kts | 91° |
| 2026-05-05 18:12 | 41.97195 | -87.88227 | 669 ft | 13 kts | 89° |
| 2026-05-05 18:12 | 41.97197 | -87.88103 | 669 ft | 14 kts | 94° |
| 2026-05-05 18:13 | 41.97133 | -87.88027 | 669 ft | 13 kts | 178° |
| 2026-05-05 18:13 | 41.97080 | -87.88033 | 670 ft | 0 kts | 181° |
| 2026-05-05 18:15 | 41.97061 | -87.88033 | 670 ft | 5 kts | 181° |
| 2026-05-05 18:16 | 41.97005 | -87.88036 | 671 ft | 11 kts | 184° |
| 2026-05-05 18:16 | 41.96917 | -87.88075 | 671 ft | 17 kts | 213° |
| 2026-05-05 18:16 | 41.96858 | -87.88138 | 671 ft | 0 kts | 223° |
| 2026-05-05 18:16 | 41.96858 | -87.88139 | 671 ft | 0 kts | 226° |
| 2026-05-05 18:17 | 41.96857 | -87.88143 | 670 ft | 0 kts | 239° |
| 2026-05-05 18:17 | 41.96765 | -87.88241 | 670 ft | 34 kts | 220° |
| 2026-05-05 18:17 | 41.96440 | -87.88645 | 670 ft | 95 kts | 223° |
| 2026-05-05 18:17 | 41.95801 | -87.89399 | 679 ft | 149 kts | 223° |
| 2026-05-05 18:18 | 41.95009 | -87.90316 | 1287 ft | 152 kts | 224° |
| 2026-05-05 18:18 | 41.94134 | -87.91143 | 1993 ft | 160 kts | 204° |
| 2026-05-05 18:18 | 41.92950 | -87.91437 | 2430 ft | 187 kts | 189° |
| 2026-05-05 18:18 | 41.91574 | -87.91551 | 2827 ft | 210 kts | 187° |
| 2026-05-05 18:19 | 41.90029 | -87.91666 | 3357 ft | 235 kts | 186° |
| 2026-05-05 18:19 | 41.88324 | -87.91916 | 3911 ft | 257 kts | 192° |
| 2026-05-05 18:19 | 41.86533 | -87.92308 | 4784 ft | 265 kts | 192° |
| 2026-05-05 18:19 | 41.84701 | -87.92743 | 5770 ft | 269 kts | 194° |
| 2026-05-05 18:20 | 41.82846 | -87.93189 | 6785 ft | 271 kts | 195° |
| 2026-05-05 18:20 | 41.80986 | -87.93634 | 7788 ft | 271 kts | 195° |
| 2026-05-05 18:20 | 41.79154 | -87.94068 | 8805 ft | 270 kts | 196° |
| 2026-05-05 18:20 | 41.77305 | -87.94501 | 9850 ft | 269 kts | 197° |
| 2026-05-05 18:21 | 41.75423 | -87.94946 | 10378 ft | 285 kts | 196° |
| 2026-05-05 18:21 | 41.73388 | -87.95441 | 10629 ft | 309 kts | 196° |
| 2026-05-05 18:21 | 41.71202 | -87.95965 | 11025 ft | 326 kts | 195° |
| 2026-05-05 18:21 | 41.68942 | -87.96490 | 11686 ft | 332 kts | 195° |
| 2026-05-05 18:22 | 41.66650 | -87.97014 | 12408 ft | 337 kts | 195° |
| 2026-05-05 18:22 | 41.64325 | -87.97544 | 13113 ft | 341 kts | 195° |
| 2026-05-05 18:22 | 41.61968 | -87.98080 | 13794 ft | 346 kts | 195° |
| 2026-05-05 18:22 | 41.59585 | -87.98624 | 14435 ft | 349 kts | 195° |
| 2026-05-05 18:23 | 41.57183 | -87.99178 | 15107 ft | 351 kts | 195° |
| 2026-05-05 18:23 | 41.54768 | -87.99738 | 15778 ft | 353 kts | 196° |
| 2026-05-05 18:23 | 41.52337 | -88.00301 | 16433 ft | 356 kts | 195° |
| 2026-05-05 18:23 | 41.49893 | -88.00867 | 17107 ft | 358 kts | 195° |
| 2026-05-05 18:24 | 41.47434 | -88.01435 | 17783 ft | 360 kts | 195° |
| 2026-05-05 18:24 | 41.44963 | -88.02004 | 18427 ft | 362 kts | 195° |
| 2026-05-05 18:24 | 41.42503 | -88.02567 | 18986 ft | 365 kts | 195° |
| 2026-05-05 18:24 | 41.40000 | -88.03167 | 19548 ft | 367 kts | 197° |
| 2026-05-05 18:25 | 41.37505 | -88.03910 | 20103 ft | 369 kts | 200° |
| 2026-05-05 18:25 | 41.36661 | -88.04189 | 20290 ft | 369 kts | 200° |
| 2026-05-05 18:25 | 41.32506 | -88.05664 | 21159 ft | 374 kts | 201° |
| 2026-05-05 18:25 | 41.29981 | -88.06585 | 21646 ft | 378 kts | 202° |
| 2026-05-05 18:26 | 41.27424 | -88.07501 | 22150 ft | 382 kts | 202° |
| 2026-05-05 18:26 | 41.24847 | -88.08404 | 22638 ft | 385 kts | 201° |
| 2026-05-05 18:26 | 41.22228 | -88.09251 | 23165 ft | 389 kts | 200° |
| 2026-05-05 18:26 | 41.19569 | -88.10031 | 23610 ft | 393 kts | 199° |
| 2026-05-05 18:27 | 41.16879 | -88.10777 | 24022 ft | 396 kts | 199° |
| 2026-05-05 18:27 | 41.14175 | -88.11513 | 24443 ft | 398 kts | 199° |
| 2026-05-05 18:27 | 41.11456 | -88.12257 | 24832 ft | 399 kts | 200° |
| 2026-05-05 18:27 | 41.08767 | -88.13002 | 25195 ft | 401 kts | 200° |
| 2026-05-05 18:28 | 41.03272 | -88.14559 | 26010 ft | 405 kts | 201° |
| 2026-05-05 18:28 | 41.00518 | -88.15354 | 26416 ft | 407 kts | 201° |
| 2026-05-05 18:28 | 40.97747 | -88.16156 | 26821 ft | 408 kts | 201° |
| 2026-05-05 18:29 | 40.94965 | -88.16960 | 27216 ft | 410 kts | 201° |
| 2026-05-05 18:29 | 40.92164 | -88.17768 | 27601 ft | 412 kts | 201° |
| 2026-05-05 18:29 | 40.89356 | -88.18568 | 27968 ft | 414 kts | 201° |
| 2026-05-05 18:29 | 40.86529 | -88.19370 | 28302 ft | 417 kts | 201° |
| 2026-05-05 18:30 | 40.83685 | -88.20178 | 28644 ft | 419 kts | 201° |
| 2026-05-05 18:30 | 40.80826 | -88.20993 | 28986 ft | 421 kts | 201° |
| 2026-05-05 18:30 | 40.77952 | -88.21812 | 29353 ft | 423 kts | 201° |
| 2026-05-05 18:30 | 40.75066 | -88.22632 | 29773 ft | 425 kts | 202° |
| 2026-05-05 18:31 | 40.72165 | -88.23456 | 30109 ft | 428 kts | 202° |
| 2026-05-05 18:31 | 40.69285 | -88.24272 | 30347 ft | 430 kts | 202° |
| 2026-05-05 18:31 | 40.66350 | -88.25104 | 30587 ft | 433 kts | 202° |
| 2026-05-05 18:31 | 40.63400 | -88.25935 | 30933 ft | 433 kts | 202° |
| 2026-05-05 18:32 | 40.60460 | -88.26759 | 31301 ft | 432 kts | 203° |
| 2026-05-05 18:32 | 40.57516 | -88.27586 | 31632 ft | 432 kts | 204° |
| 2026-05-05 18:32 | 40.54571 | -88.28415 | 31969 ft | 433 kts | 204° |
| 2026-05-05 18:32 | 40.51626 | -88.29246 | 32308 ft | 433 kts | 204° |
| 2026-05-05 18:33 | 40.49668 | -88.29798 | 32529 ft | 433 kts | 204° |
| 2026-05-05 18:33 | 40.46720 | -88.30628 | 32870 ft | 434 kts | 205° |
| 2026-05-05 18:33 | 40.43765 | -88.31460 | 33135 ft | 436 kts | 205° |
| 2026-05-05 18:33 | 40.40794 | -88.32294 | 33448 ft | 437 kts | 206° |
| 2026-05-05 18:34 | 40.37814 | -88.33130 | 33814 ft | 438 kts | 206° |
| 2026-05-05 18:34 | 40.34836 | -88.33966 | 34133 ft | 438 kts | 206° |
| 2026-05-05 18:34 | 40.31956 | -88.35029 | 34436 ft | 423 kts | 214° |
| 2026-05-05 18:34 | 40.29324 | -88.36579 | 34747 ft | 408 kts | 222° |
| 2026-05-05 18:35 | 40.26869 | -88.38409 | 35068 ft | 405 kts | 223° |
| 2026-05-05 18:35 | 40.24423 | -88.40240 | 35397 ft | 405 kts | 223° |
| 2026-05-05 18:35 | 40.22005 | -88.42045 | 35638 ft | 406 kts | 223° |
| 2026-05-05 18:35 | 40.19547 | -88.43874 | 35920 ft | 407 kts | 223° |
| 2026-05-05 18:36 | 40.17085 | -88.45700 | 36203 ft | 407 kts | 223° |
| 2026-05-05 18:36 | 40.14619 | -88.47525 | 36507 ft | 407 kts | 224° |
| 2026-05-05 18:36 | 40.12158 | -88.49341 | 36844 ft | 405 kts | 223° |
| 2026-05-05 18:36 | 40.09707 | -88.51142 | 37163 ft | 404 kts | 224° |
| 2026-05-05 18:37 | 40.07259 | -88.52943 | 37468 ft | 403 kts | 224° |
| 2026-05-05 18:37 | 40.04820 | -88.54745 | 37737 ft | 403 kts | 224° |
| 2026-05-05 18:37 | 40.02385 | -88.56549 | 37967 ft | 403 kts | 224° |
| 2026-05-05 18:37 | 39.99944 | -88.58354 | 37999 ft | 403 kts | 223° |
| 2026-05-05 18:38 | 39.95114 | -88.61906 | 38033 ft | 400 kts | 223° |
| 2026-05-05 18:38 | 39.90266 | -88.65466 | 38036 ft | 400 kts | 223° |
| 2026-05-05 18:39 | 39.85421 | -88.69025 | 38037 ft | 400 kts | 223° |
| 2026-05-05 18:39 | 39.80576 | -88.72577 | 38044 ft | 400 kts | 223° |
| 2026-05-05 18:40 | 39.75735 | -88.76120 | 38024 ft | 399 kts | 223° |
| 2026-05-05 18:40 | 39.70894 | -88.79662 | 38034 ft | 399 kts | 223° |
| 2026-05-05 18:41 | 39.66058 | -88.83189 | 38036 ft | 399 kts | 223° |
| 2026-05-05 18:41 | 39.61252 | -88.86688 | 38043 ft | 399 kts | 224° |
| 2026-05-05 18:42 | 39.56417 | -88.90198 | 37992 ft | 398 kts | 223° |
| 2026-05-05 18:42 | 39.51594 | -88.93701 | 38009 ft | 397 kts | 223° |
| 2026-05-05 18:43 | 39.46778 | -88.97197 | 38024 ft | 396 kts | 223° |
| 2026-05-05 18:43 | 39.41963 | -89.00679 | 38037 ft | 396 kts | 223° |
| 2026-05-05 18:44 | 39.37145 | -89.04151 | 38038 ft | 396 kts | 223° |
| 2026-05-05 18:44 | 39.32369 | -89.07598 | 37992 ft | 395 kts | 223° |
| 2026-05-05 18:45 | 39.27565 | -89.11067 | 38008 ft | 395 kts | 223° |
| 2026-05-05 18:45 | 39.22760 | -89.14524 | 38019 ft | 395 kts | 223° |
| 2026-05-05 18:46 | 39.17955 | -89.17975 | 38028 ft | 395 kts | 223° |
| 2026-05-05 18:46 | 39.13145 | -89.21419 | 38030 ft | 395 kts | 223° |
| 2026-05-05 18:47 | 39.08366 | -89.24842 | 38014 ft | 395 kts | 223° |
| 2026-05-05 18:47 | 39.03555 | -89.28275 | 38031 ft | 395 kts | 223° |
| 2026-05-05 18:48 | 38.98751 | -89.31699 | 38037 ft | 394 kts | 223° |
| 2026-05-05 18:48 | 38.93953 | -89.35119 | 38040 ft | 394 kts | 223° |
| 2026-05-05 18:49 | 38.89156 | -89.38527 | 38036 ft | 394 kts | 223° |
| 2026-05-05 18:49 | 38.84359 | -89.41937 | 37996 ft | 394 kts | 223° |
| 2026-05-05 18:50 | 38.79559 | -89.45335 | 38006 ft | 395 kts | 223° |
| 2026-05-05 18:50 | 38.74780 | -89.48713 | 38012 ft | 394 kts | 223° |
| 2026-05-05 18:51 | 38.69966 | -89.52108 | 38016 ft | 394 kts | 223° |
| 2026-05-05 18:51 | 38.65161 | -89.55503 | 37983 ft | 395 kts | 223° |
| 2026-05-05 18:52 | 38.60350 | -89.58902 | 37987 ft | 395 kts | 223° |
| 2026-05-05 18:52 | 38.55528 | -89.62295 | 37999 ft | 396 kts | 223° |
| 2026-05-05 18:53 | 38.50728 | -89.65657 | 38009 ft | 396 kts | 223° |
| 2026-05-05 18:53 | 38.45895 | -89.69049 | 38020 ft | 396 kts | 223° |
| 2026-05-05 18:54 | 38.41061 | -89.72436 | 38024 ft | 396 kts | 223° |
| 2026-05-05 18:54 | 38.36226 | -89.75820 | 38024 ft | 396 kts | 223° |
| 2026-05-05 18:55 | 38.31393 | -89.79195 | 38021 ft | 396 kts | 223° |
| 2026-05-05 18:55 | 38.26589 | -89.82538 | 38013 ft | 396 kts | 223° |
| 2026-05-05 18:56 | 38.21754 | -89.85898 | 38003 ft | 396 kts | 223° |
| 2026-05-05 18:56 | 38.16918 | -89.89261 | 37972 ft | 397 kts | 223° |
| 2026-05-05 18:57 | 38.12062 | -89.92639 | 37985 ft | 398 kts | 222° |
| 2026-05-05 18:57 | 38.07192 | -89.96008 | 37983 ft | 398 kts | 222° |
| 2026-05-05 18:58 | 38.02320 | -89.99372 | 38003 ft | 398 kts | 222° |
| 2026-05-05 18:58 | 37.97493 | -90.02711 | 38011 ft | 397 kts | 222° |
| 2026-05-05 18:59 | 37.92629 | -90.06073 | 37959 ft | 397 kts | 222° |
| 2026-05-05 18:59 | 37.87771 | -90.09416 | 37974 ft | 398 kts | 222° |
| 2026-05-05 19:00 | 37.82893 | -90.12767 | 37984 ft | 399 kts | 222° |
| 2026-05-05 19:00 | 37.78044 | -90.16090 | 37992 ft | 399 kts | 222° |
| 2026-05-05 19:01 | 37.73162 | -90.19433 | 38003 ft | 399 kts | 222° |
| 2026-05-05 19:01 | 37.68274 | -90.22775 | 37969 ft | 400 kts | 221° |
| 2026-05-05 19:02 | 37.65687 | -90.24218 | 37977 ft | 413 kts | 214° |
| 2026-05-05 19:02 | 37.62995 | -90.25493 | 37980 ft | 413 kts | 214° |
| 2026-05-05 19:02 | 37.57598 | -90.28018 | 37983 ft | 414 kts | 214° |
| 2026-05-05 19:03 | 37.52228 | -90.30519 | 37976 ft | 414 kts | 214° |
| 2026-05-05 19:03 | 37.46827 | -90.33040 | 37914 ft | 414 kts | 214° |
| 2026-05-05 19:04 | 37.41410 | -90.35585 | 37966 ft | 417 kts | 214° |
| 2026-05-05 19:04 | 37.35967 | -90.38132 | 37967 ft | 417 kts | 214° |
| 2026-05-05 19:05 | 37.30538 | -90.40655 | 37986 ft | 415 kts | 214° |
| 2026-05-05 19:05 | 37.25118 | -90.43170 | 37985 ft | 414 kts | 214° |
| 2026-05-05 19:06 | 37.19716 | -90.45673 | 37934 ft | 413 kts | 214° |
| 2026-05-05 19:06 | 37.14352 | -90.48163 | 37938 ft | 413 kts | 214° |
| 2026-05-05 19:07 | 37.08959 | -90.50663 | 37944 ft | 414 kts | 214° |
| 2026-05-05 19:07 | 37.03558 | -90.53168 | 37947 ft | 414 kts | 214° |
| 2026-05-05 19:08 | 36.98157 | -90.55663 | 37915 ft | 414 kts | 214° |
| 2026-05-05 19:08 | 36.92787 | -90.58137 | 37941 ft | 414 kts | 214° |
| 2026-05-05 19:09 | 36.87374 | -90.60625 | 37950 ft | 414 kts | 214° |
| 2026-05-05 19:09 | 36.81962 | -90.63110 | 37950 ft | 414 kts | 214° |
| 2026-05-05 19:10 | 36.76550 | -90.65596 | 37950 ft | 414 kts | 214° |
| 2026-05-05 19:10 | 36.71130 | -90.68074 | 37942 ft | 416 kts | 214° |
| 2026-05-05 19:11 | 36.65697 | -90.70563 | 37957 ft | 416 kts | 214° |
| 2026-05-05 19:11 | 36.60297 | -90.73026 | 37948 ft | 416 kts | 214° |
| 2026-05-05 19:12 | 36.54862 | -90.75510 | 37951 ft | 416 kts | 214° |
| 2026-05-05 19:12 | 36.49423 | -90.77990 | 37915 ft | 416 kts | 215° |
| 2026-05-05 19:13 | 36.43994 | -90.80464 | 37921 ft | 416 kts | 215° |
| 2026-05-05 19:13 | 36.38558 | -90.82933 | 37932 ft | 416 kts | 215° |
| 2026-05-05 19:14 | 36.33119 | -90.85398 | 37941 ft | 416 kts | 215° |
| 2026-05-05 19:14 | 36.30433 | -90.86614 | 37794 ft | 416 kts | 214° |
| 2026-05-05 19:14 | 36.27720 | -90.87840 | 37833 ft | 416 kts | 215° |
| 2026-05-05 19:15 | 36.22276 | -90.90303 | 37827 ft | 416 kts | 215° |
| 2026-05-05 19:15 | 36.16825 | -90.92763 | 37832 ft | 417 kts | 214° |
| 2026-05-05 19:16 | 36.11453 | -90.95353 | 37823 ft | 404 kts | 222° |
| 2026-05-05 19:16 | 36.09109 | -90.97137 | 37824 ft | 388 kts | 230° |
| 2026-05-05 19:16 | 36.06973 | -90.99152 | 37825 ft | 386 kts | 231° |
| 2026-05-05 19:17 | 36.02731 | -91.03164 | 37832 ft | 386 kts | 231° |
| 2026-05-05 19:17 | 35.98445 | -91.07185 | 37823 ft | 387 kts | 230° |
| 2026-05-05 19:18 | 35.94154 | -91.11196 | 37834 ft | 387 kts | 230° |
| 2026-05-05 19:18 | 35.89860 | -91.15212 | 37830 ft | 387 kts | 230° |
| 2026-05-05 19:19 | 35.85575 | -91.19215 | 37846 ft | 386 kts | 230° |
| 2026-05-05 19:19 | 35.81291 | -91.23206 | 37843 ft | 386 kts | 230° |
| 2026-05-05 19:20 | 35.77045 | -91.27165 | 37843 ft | 385 kts | 230° |
| 2026-05-05 19:20 | 35.72772 | -91.31139 | 37821 ft | 385 kts | 230° |
| 2026-05-05 19:21 | 35.68502 | -91.35111 | 37840 ft | 384 kts | 230° |
| 2026-05-05 19:21 | 35.64227 | -91.39074 | 37837 ft | 385 kts | 230° |
| 2026-05-05 19:22 | 35.59954 | -91.43029 | 37833 ft | 384 kts | 230° |
| 2026-05-05 19:22 | 35.55682 | -91.46984 | 37836 ft | 384 kts | 230° |
| 2026-05-05 19:23 | 35.51442 | -91.50910 | 37845 ft | 384 kts | 230° |
| 2026-05-05 19:23 | 35.47171 | -91.54854 | 37801 ft | 384 kts | 230° |
| 2026-05-05 19:24 | 35.42900 | -91.58783 | 37827 ft | 383 kts | 230° |
| 2026-05-05 19:24 | 35.38641 | -91.62694 | 37836 ft | 382 kts | 230° |
| 2026-05-05 19:25 | 35.34379 | -91.66611 | 37840 ft | 382 kts | 230° |
| 2026-05-05 19:25 | 35.30125 | -91.70519 | 37843 ft | 382 kts | 230° |
| 2026-05-05 19:26 | 35.25899 | -91.74385 | 37842 ft | 382 kts | 230° |
| 2026-05-05 19:26 | 35.21645 | -91.78279 | 37796 ft | 382 kts | 230° |
| 2026-05-05 19:27 | 35.17393 | -91.82169 | 37811 ft | 382 kts | 230° |
| 2026-05-05 19:27 | 35.13142 | -91.86061 | 37818 ft | 382 kts | 230° |
| 2026-05-05 19:28 | 35.08884 | -91.89943 | 37819 ft | 382 kts | 230° |
| 2026-05-05 19:28 | 35.04621 | -91.93818 | 37830 ft | 381 kts | 230° |
| 2026-05-05 19:29 | 35.00370 | -91.97680 | 37836 ft | 381 kts | 230° |
| 2026-05-05 19:29 | 34.96153 | -92.01505 | 37792 ft | 380 kts | 230° |
| 2026-05-05 19:30 | 34.91906 | -92.05362 | 37801 ft | 381 kts | 230° |
| 2026-05-05 19:30 | 34.87646 | -92.09218 | 37808 ft | 382 kts | 230° |
| 2026-05-05 19:31 | 34.83378 | -92.13061 | 37812 ft | 384 kts | 228° |
| 2026-05-05 19:31 | 34.81006 | -92.14704 | 37822 ft | 403 kts | 218° |
| 2026-05-05 19:31 | 34.78271 | -92.15776 | 37822 ft | 426 kts | 206° |
| 2026-05-05 19:32 | 34.72338 | -92.16928 | 37823 ft | 432 kts | 204° |
| 2026-05-05 19:32 | 34.66435 | -92.18062 | 37798 ft | 432 kts | 204° |
| 2026-05-05 19:33 | 34.60499 | -92.19228 | 37809 ft | 432 kts | 204° |
| 2026-05-05 19:33 | 34.54552 | -92.20390 | 37817 ft | 433 kts | 204° |
| 2026-05-05 19:34 | 34.48599 | -92.21544 | 37821 ft | 433 kts | 204° |
| 2026-05-05 19:35 | 34.39648 | -92.23281 | 37836 ft | 436 kts | 204° |
| 2026-05-05 19:35 | 34.33654 | -92.24437 | 37842 ft | 435 kts | 204° |
| 2026-05-05 19:36 | 34.27678 | -92.25592 | 37850 ft | 435 kts | 204° |
| 2026-05-05 19:36 | 34.21739 | -92.26737 | 37846 ft | 435 kts | 204° |
| 2026-05-05 19:37 | 34.15760 | -92.27879 | 37813 ft | 435 kts | 204° |
| 2026-05-05 19:37 | 34.10745 | -92.28817 | 37824 ft | 436 kts | 203° |
| 2026-05-05 19:38 | 34.04795 | -92.29919 | 37824 ft | 435 kts | 203° |
| 2026-05-05 19:38 | 33.98817 | -92.31031 | 37833 ft | 435 kts | 203° |
| 2026-05-05 19:39 | 33.92841 | -92.32144 | 37806 ft | 434 kts | 203° |
| 2026-05-05 19:39 | 33.86865 | -92.33254 | 37817 ft | 435 kts | 203° |
| 2026-05-05 19:40 | 33.80882 | -92.34363 | 37826 ft | 435 kts | 203° |
| 2026-05-05 19:40 | 33.74906 | -92.35470 | 37830 ft | 434 kts | 203° |
| 2026-05-05 19:41 | 33.68930 | -92.36581 | 37836 ft | 435 kts | 203° |
| 2026-05-05 19:41 | 33.62989 | -92.37683 | 37798 ft | 435 kts | 203° |
| 2026-05-05 19:42 | 33.57002 | -92.38779 | 37814 ft | 435 kts | 203° |
| 2026-05-05 19:42 | 33.51010 | -92.39878 | 37824 ft | 435 kts | 203° |
| 2026-05-05 19:43 | 33.45030 | -92.40978 | 37827 ft | 435 kts | 203° |
| 2026-05-05 19:43 | 33.39050 | -92.42076 | 37832 ft | 435 kts | 203° |
| 2026-05-05 19:44 | 33.33071 | -92.43175 | 37835 ft | 435 kts | 203° |
| 2026-05-05 19:44 | 33.27130 | -92.44267 | 37838 ft | 435 kts | 203° |
| 2026-05-05 19:45 | 33.21147 | -92.45361 | 37838 ft | 435 kts | 203° |
| 2026-05-05 19:45 | 33.15164 | -92.46458 | 37839 ft | 435 kts | 203° |
| 2026-05-05 19:46 | 33.09179 | -92.47550 | 37810 ft | 435 kts | 202° |
| 2026-05-05 19:46 | 33.03201 | -92.48643 | 37824 ft | 435 kts | 202° |
| 2026-05-05 19:47 | 32.97246 | -92.49727 | 37834 ft | 436 kts | 202° |
| 2026-05-05 19:47 | 32.91250 | -92.50819 | 37843 ft | 436 kts | 202° |
| 2026-05-05 19:48 | 32.85249 | -92.51912 | 37815 ft | 436 kts | 202° |
| 2026-05-05 19:48 | 32.79252 | -92.53001 | 37838 ft | 436 kts | 202° |
| 2026-05-05 19:49 | 32.73251 | -92.54086 | 37855 ft | 436 kts | 202° |
| 2026-05-05 19:49 | 32.67247 | -92.55173 | 37869 ft | 436 kts | 202° |
| 2026-05-05 19:50 | 32.61251 | -92.56258 | 37877 ft | 436 kts | 202° |
| 2026-05-05 19:50 | 32.55250 | -92.57346 | 37866 ft | 437 kts | 202° |
| 2026-05-05 19:51 | 32.49238 | -92.58427 | 37873 ft | 437 kts | 202° |
| 2026-05-05 19:51 | 32.43274 | -92.59497 | 37878 ft | 437 kts | 202° |
| 2026-05-05 19:52 | 32.37264 | -92.60581 | 37879 ft | 436 kts | 202° |
| 2026-05-05 19:52 | 32.31260 | -92.61668 | 37821 ft | 436 kts | 201° |
| 2026-05-05 19:53 | 32.25258 | -92.62741 | 37839 ft | 436 kts | 201° |
| 2026-05-05 19:53 | 32.19255 | -92.63810 | 37846 ft | 436 kts | 201° |
| 2026-05-05 19:54 | 32.13254 | -92.64881 | 37859 ft | 436 kts | 201° |
| 2026-05-05 19:54 | 32.07255 | -92.65952 | 37861 ft | 436 kts | 201° |
| 2026-05-05 19:55 | 32.01324 | -92.67082 | 37828 ft | 428 kts | 206° |
| 2026-05-05 19:55 | 31.98551 | -92.68153 | 37830 ft | 412 kts | 216° |
| 2026-05-05 19:55 | 31.96058 | -92.69696 | 37837 ft | 398 kts | 224° |
| 2026-05-05 19:55 | 31.93881 | -92.71625 | 37842 ft | 387 kts | 232° |
| 2026-05-05 19:56 | 31.91949 | -92.73795 | 37847 ft | 383 kts | 234° |
| 2026-05-05 19:56 | 31.88107 | -92.78150 | 37848 ft | 384 kts | 234° |
| 2026-05-05 19:57 | 31.84255 | -92.82498 | 37865 ft | 384 kts | 233° |
| 2026-05-05 19:57 | 31.80401 | -92.86841 | 37874 ft | 384 kts | 233° |
| 2026-05-05 19:58 | 31.76568 | -92.91156 | 37860 ft | 384 kts | 233° |
| 2026-05-05 19:58 | 31.72696 | -92.95500 | 37857 ft | 386 kts | 233° |
| 2026-05-05 19:59 | 31.68811 | -92.99867 | 37868 ft | 387 kts | 233° |
| 2026-05-05 19:59 | 31.64917 | -93.04243 | 37875 ft | 388 kts | 233° |
| 2026-05-05 20:00 | 31.61005 | -93.08623 | 37852 ft | 389 kts | 233° |
| 2026-05-05 20:00 | 31.57093 | -93.13003 | 37868 ft | 389 kts | 233° |
| 2026-05-05 20:01 | 31.53181 | -93.17387 | 37878 ft | 389 kts | 233° |
| 2026-05-05 20:01 | 31.49283 | -93.21741 | 37877 ft | 389 kts | 233° |
| 2026-05-05 20:02 | 31.45352 | -93.26129 | 37850 ft | 390 kts | 233° |
| 2026-05-05 20:02 | 31.41414 | -93.30507 | 37854 ft | 391 kts | 232° |
| 2026-05-05 20:03 | 31.37488 | -93.34861 | 37852 ft | 391 kts | 232° |
| 2026-05-05 20:03 | 31.33540 | -93.39253 | 37863 ft | 392 kts | 233° |
| 2026-05-05 20:04 | 31.29595 | -93.43651 | 37873 ft | 392 kts | 232° |
| 2026-05-05 20:04 | 31.25632 | -93.48040 | 37602 ft | 392 kts | 232° |
| 2026-05-05 20:04 | 31.23647 | -93.50234 | 37341 ft | 392 kts | 232° |
| 2026-05-05 20:05 | 31.21666 | -93.52423 | 37081 ft | 392 kts | 232° |
| 2026-05-05 20:05 | 31.19687 | -93.54614 | 36827 ft | 392 kts | 232° |
| 2026-05-05 20:05 | 31.17702 | -93.56811 | 36541 ft | 393 kts | 232° |
| 2026-05-05 20:05 | 31.15712 | -93.59011 | 36291 ft | 394 kts | 232° |
| 2026-05-05 20:06 | 31.13744 | -93.61182 | 36049 ft | 394 kts | 232° |
| 2026-05-05 20:06 | 31.11750 | -93.63382 | 35804 ft | 395 kts | 232° |
| 2026-05-05 20:06 | 31.09754 | -93.65583 | 35565 ft | 395 kts | 232° |
| 2026-05-05 20:06 | 31.07756 | -93.67786 | 35321 ft | 395 kts | 232° |
| 2026-05-05 20:07 | 31.05760 | -93.69984 | 35090 ft | 395 kts | 232° |
| 2026-05-05 20:07 | 31.03761 | -93.72187 | 34855 ft | 395 kts | 232° |
| 2026-05-05 20:07 | 31.01759 | -93.74388 | 34624 ft | 395 kts | 232° |
| 2026-05-05 20:07 | 30.99756 | -93.76588 | 34394 ft | 396 kts | 232° |
| 2026-05-05 20:08 | 30.97749 | -93.78792 | 34171 ft | 396 kts | 232° |
| 2026-05-05 20:08 | 30.95750 | -93.80989 | 33631 ft | 396 kts | 231° |
| 2026-05-05 20:08 | 30.93739 | -93.83202 | 32819 ft | 399 kts | 231° |
| 2026-05-05 20:08 | 30.91713 | -93.85428 | 31992 ft | 401 kts | 231° |
| 2026-05-05 20:09 | 30.89674 | -93.87667 | 31093 ft | 405 kts | 231° |
| 2026-05-05 20:09 | 30.87637 | -93.89903 | 30217 ft | 409 kts | 231° |
| 2026-05-05 20:09 | 30.85558 | -93.92185 | 29340 ft | 411 kts | 231° |
| 2026-05-05 20:09 | 30.83490 | -93.94441 | 28732 ft | 405 kts | 231° |
| 2026-05-05 20:10 | 30.81443 | -93.96672 | 28065 ft | 401 kts | 231° |
| 2026-05-05 20:10 | 30.79421 | -93.98879 | 27403 ft | 397 kts | 231° |
| 2026-05-05 20:10 | 30.77414 | -94.01077 | 26747 ft | 394 kts | 231° |
| 2026-05-05 20:10 | 30.75424 | -94.03261 | 26095 ft | 391 kts | 231° |
| 2026-05-05 20:11 | 30.73451 | -94.05424 | 25453 ft | 389 kts | 231° |
| 2026-05-05 20:11 | 30.71490 | -94.07574 | 24817 ft | 386 kts | 231° |
| 2026-05-05 20:11 | 30.69543 | -94.09702 | 24191 ft | 383 kts | 231° |
| 2026-05-05 20:11 | 30.67604 | -94.11817 | 23571 ft | 381 kts | 231° |
| 2026-05-05 20:12 | 30.65703 | -94.13889 | 23036 ft | 376 kts | 231° |
| 2026-05-05 20:12 | 30.63826 | -94.15932 | 22859 ft | 364 kts | 231° |
| 2026-05-05 20:12 | 30.61980 | -94.17922 | 22877 ft | 361 kts | 231° |
| 2026-05-05 20:12 | 30.60119 | -94.19875 | 22877 ft | 361 kts | 230° |
| 2026-05-05 20:13 | 30.58244 | -94.21806 | 22875 ft | 360 kts | 230° |
| 2026-05-05 20:13 | 30.56368 | -94.23727 | 22850 ft | 360 kts | 229° |
| 2026-05-05 20:13 | 30.54487 | -94.25653 | 22362 ft | 360 kts | 229° |
| 2026-05-05 20:13 | 30.52613 | -94.27577 | 21774 ft | 359 kts | 229° |
| 2026-05-05 20:14 | 30.50747 | -94.29499 | 21201 ft | 358 kts | 229° |
| 2026-05-05 20:14 | 30.48914 | -94.31389 | 20647 ft | 356 kts | 229° |
| 2026-05-05 20:14 | 30.47069 | -94.33292 | 20087 ft | 354 kts | 228° |
| 2026-05-05 20:14 | 30.45235 | -94.35187 | 19522 ft | 352 kts | 228° |
| 2026-05-05 20:15 | 30.43410 | -94.37071 | 18969 ft | 350 kts | 227° |
| 2026-05-05 20:15 | 30.41593 | -94.38943 | 18418 ft | 348 kts | 227° |
| 2026-05-05 20:15 | 30.39786 | -94.40803 | 17845 ft | 346 kts | 226° |
| 2026-05-05 20:15 | 30.37964 | -94.42615 | 17229 ft | 345 kts | 225° |
| 2026-05-05 20:16 | 30.36121 | -94.44379 | 16625 ft | 342 kts | 224° |
| 2026-05-05 20:16 | 30.34275 | -94.46114 | 16039 ft | 340 kts | 224° |
| 2026-05-05 20:16 | 30.32439 | -94.47832 | 15453 ft | 338 kts | 223° |
| 2026-05-05 20:16 | 30.30642 | -94.49520 | 14885 ft | 336 kts | 223° |
| 2026-05-05 20:17 | 30.28836 | -94.51229 | 14319 ft | 334 kts | 223° |
| 2026-05-05 20:17 | 30.27048 | -94.52934 | 13789 ft | 332 kts | 222° |
| 2026-05-05 20:17 | 30.25295 | -94.54603 | 13611 ft | 319 kts | 222° |
| 2026-05-05 20:17 | 30.23615 | -94.56197 | 13491 ft | 306 kts | 222° |
| 2026-05-05 20:18 | 30.22000 | -94.57727 | 13359 ft | 294 kts | 222° |
| 2026-05-05 20:18 | 30.20448 | -94.59196 | 13237 ft | 283 kts | 222° |
| 2026-05-05 20:18 | 30.18921 | -94.60595 | 12865 ft | 282 kts | 221° |
| 2026-05-05 20:18 | 30.17288 | -94.62087 | 12454 ft | 318 kts | 221° |
| 2026-05-05 20:19 | 30.15505 | -94.63739 | 12060 ft | 335 kts | 221° |
| 2026-05-05 20:19 | 30.13688 | -94.65433 | 11671 ft | 337 kts | 221° |
| 2026-05-05 20:19 | 30.11890 | -94.67118 | 11291 ft | 336 kts | 221° |
| 2026-05-05 20:19 | 30.10066 | -94.68778 | 10910 ft | 330 kts | 219° |
| 2026-05-05 20:20 | 30.08234 | -94.70320 | 10540 ft | 322 kts | 218° |
| 2026-05-05 20:20 | 30.06430 | -94.71824 | 10173 ft | 315 kts | 218° |
| 2026-05-05 20:20 | 30.04678 | -94.73320 | 9687 ft | 313 kts | 218° |
| 2026-05-05 20:20 | 30.02946 | -94.74845 | 9082 ft | 312 kts | 219° |
| 2026-05-05 20:21 | 30.01340 | -94.76461 | 8477 ft | 301 kts | 230° |
| 2026-05-05 20:21 | 30.00316 | -94.78527 | 7898 ft | 295 kts | 249° |
| 2026-05-05 20:21 | 29.99641 | -94.80711 | 7337 ft | 291 kts | 250° |
| 2026-05-05 20:21 | 29.99300 | -94.82963 | 7058 ft | 280 kts | 267° |
| 2026-05-05 20:22 | 29.99311 | -94.85124 | 6983 ft | 258 kts | 266° |
| 2026-05-05 20:22 | 29.99318 | -94.87155 | 6672 ft | 251 kts | 265° |
| 2026-05-05 20:22 | 29.99318 | -94.89164 | 6177 ft | 250 kts | 266° |
| 2026-05-05 20:22 | 29.99318 | -94.91154 | 5847 ft | 241 kts | 266° |
| 2026-05-05 20:23 | 29.99313 | -94.93021 | 5722 ft | 224 kts | 265° |
| 2026-05-05 20:23 | 29.99309 | -94.94794 | 5370 ft | 219 kts | 265° |
| 2026-05-05 20:23 | 29.99311 | -94.96529 | 5021 ft | 215 kts | 266° |
| 2026-05-05 20:23 | 29.99314 | -94.98244 | 4665 ft | 213 kts | 265° |
| 2026-05-05 20:24 | 29.99317 | -94.99954 | 4297 ft | 213 kts | 265° |
| 2026-05-05 20:24 | 29.99320 | -95.01668 | 3928 ft | 213 kts | 265° |
| 2026-05-05 20:24 | 29.99323 | -95.03379 | 3565 ft | 213 kts | 265° |
| 2026-05-05 20:24 | 29.99326 | -95.05091 | 3197 ft | 214 kts | 265° |
| 2026-05-05 20:25 | 29.99329 | -95.06807 | 2836 ft | 214 kts | 265° |
| 2026-05-05 20:25 | 29.99331 | -95.08508 | 2482 ft | 215 kts | 264° |
| 2026-05-05 20:25 | 29.99334 | -95.10229 | 2114 ft | 214 kts | 265° |
| 2026-05-05 20:25 | 29.99338 | -95.11896 | 1991 ft | 198 kts | 263° |
| 2026-05-05 20:26 | 29.99340 | -95.13454 | 1993 ft | 191 kts | 265° |
| 2026-05-05 20:26 | 29.99340 | -95.14974 | 1984 ft | 189 kts | 265° |
| 2026-05-05 20:26 | 29.99341 | -95.16480 | 1985 ft | 185 kts | 264° |
| 2026-05-05 20:26 | 29.99343 | -95.17926 | 1990 ft | 176 kts | 264° |
| 2026-05-05 20:27 | 29.99344 | -95.19323 | 1988 ft | 174 kts | 262° |
| 2026-05-05 20:27 | 29.99344 | -95.20719 | 1964 ft | 174 kts | 264° |
| 2026-05-05 20:27 | 29.99345 | -95.22093 | 1814 ft | 166 kts | 264° |
| 2026-05-05 20:27 | 29.99347 | -95.23364 | 1634 ft | 152 kts | 264° |
| 2026-05-05 20:28 | 29.99347 | -95.24554 | 1447 ft | 145 kts | 261° |
| 2026-05-05 20:28 | 29.99346 | -95.25692 | 1272 ft | 143 kts | 262° |
| 2026-05-05 20:28 | 29.99347 | -95.26815 | 1089 ft | 137 kts | 261° |
| 2026-05-05 20:28 | 29.99371 | -95.27915 | 876 ft | 138 kts | 262° |
| 2026-05-05 20:29 | 29.99373 | -95.29006 | 714 ft | 138 kts | 266° |
| 2026-05-05 20:29 | 29.99343 | -95.30106 | 550 ft | 136 kts | 266° |
| 2026-05-05 20:29 | 29.99345 | -95.31225 | 364 ft | 143 kts | 266° |
| 2026-05-05 20:29 | 29.99349 | -95.32342 | 184 ft | 136 kts | 265° |
| 2026-05-05 20:30 | 29.99338 | -95.33367 | 108 ft | 118 kts | 268° |
| 2026-05-05 20:30 | 29.99339 | -95.34205 | 105 ft | 84 kts | 270° |
| 2026-05-05 20:30 | 29.99337 | -95.34627 | 107 ft | 34 kts | 259° |
| 2026-05-05 20:30 | 29.99256 | -95.34835 | 107 ft | 10 kts | 233° |
| 2026-05-05 20:31 | 29.99229 | -95.34878 | 106 ft | 1 kts | 236° |
| 2026-05-05 20:31 | 29.99219 | -95.34895 | 107 ft | 5 kts | 236° |
| 2026-05-05 20:31 | 29.99186 | -95.34972 | 107 ft | 17 kts | 249° |
| 2026-05-05 20:31 | 29.99175 | -95.35152 | 107 ft | 29 kts | 269° |
| 2026-05-05 20:32 | 29.99176 | -95.35384 | 107 ft | 28 kts | 270° |
| 2026-05-05 20:32 | 29.99158 | -95.35468 | 106 ft | 11 kts | 225° |
| 2026-05-05 20:32 | 29.99113 | -95.35482 | 107 ft | 2 kts | 183° |
| 2026-05-05 20:32 | 29.99074 | -95.35484 | 107 ft | 9 kts | 182° |
| 2026-05-05 20:33 | 29.98990 | -95.35485 | 107 ft | 16 kts | 180° |
| 2026-05-05 20:33 | 29.98879 | -95.35484 | 107 ft | 5 kts | 178° |
| 2026-05-05 20:33 | 29.98860 | -95.35483 | 107 ft | 12 kts | 178° |
| 2026-05-05 20:33 | 29.98733 | -95.35418 | 107 ft | 16 kts | 153° |
| 2026-05-05 20:34 | 29.98660 | -95.35374 | 107 ft | 13 kts | 152° |
| 2026-05-05 20:34 | 29.98570 | -95.35315 | 107 ft | 13 kts | 152° |
| 2026-05-05 20:34 | 29.98467 | -95.35253 | 107 ft | 20 kts | 152° |
| 2026-05-05 20:34 | 29.98381 | -95.35148 | 107 ft | 20 kts | 94° |
| 2026-05-05 20:35 | 29.98381 | -95.34968 | 107 ft | 24 kts | 90° |
| 2026-05-05 20:35 | 29.98380 | -95.34800 | 107 ft | 19 kts | 90° |
| 2026-05-05 20:35 | 29.98379 | -95.34658 | 107 ft | 8 kts | 88° |
| 2026-05-05 20:35 | 29.98429 | -95.34619 | 107 ft | 4 kts | 18° |
| 2026-05-05 20:36 | 29.98452 | -95.34595 | 107 ft | 2 kts | 43° |
| 2026-05-05 20:36 | 29.98457 | -95.34588 | 107 ft | 0 kts | 44° |